createdAt,value
2019-04-03T00:01:25.490Z,7.47
2019-04-03T00:03:55.275Z,6.03
2019-04-03T00:06:24.949Z,5.13
2019-04-03T00:08:54.677Z,6.37
2019-04-03T00:11:24.434Z,4.37
2019-04-03T00:13:54.128Z,6.93
2019-04-03T00:16:23.797Z,8.03
2019-04-03T00:18:53.447Z,6.57
2019-04-03T00:21:23.165Z,5.97
2019-04-03T00:23:53.135Z,6.73
2019-04-03T00:26:23.022Z,5.93
2019-04-03T00:28:52.935Z,4.97
2019-04-03T00:31:23.417Z,4.47
2019-04-03T00:33:53.891Z,2.87
2019-04-03T00:36:23.914Z,4.27
2019-04-03T00:38:54.284Z,1.83
2019-04-03T00:41:25.076Z,2.93
2019-04-03T00:43:55.095Z,3.23
2019-04-03T00:46:25.216Z,3.20
2019-04-03T00:48:55.727Z,4.37
2019-04-03T00:51:27.407Z,4.80
2019-04-03T00:53:58.666Z,4.30
2019-04-03T00:56:28.343Z,5.33
2019-04-03T00:58:58.010Z,4.67
2019-04-03T01:01:27.777Z,6.00
2019-04-03T01:03:58.858Z,4.60
2019-04-03T01:06:29.077Z,3.23
2019-04-03T01:08:59.875Z,5.63
2019-04-03T01:11:30.639Z,5.63
2019-04-03T01:14:01.669Z,7.07
2019-04-03T01:16:33.096Z,6.53
2019-04-03T01:19:05.194Z,8.27
2019-04-03T01:21:37.237Z,7.03
2019-04-03T01:24:08.295Z,7.67
2019-04-03T01:26:40.409Z,8.47
2019-04-03T01:29:10.643Z,6.77
2019-04-03T01:31:41.256Z,5.93
2019-04-03T01:34:11.099Z,7.07
2019-04-03T01:36:40.876Z,7.87
2019-04-03T01:39:10.752Z,6.57
2019-04-03T01:41:40.493Z,7.97
2019-04-03T01:44:10.263Z,7.63
2019-04-03T01:46:40.135Z,9.13
2019-04-03T01:49:10.055Z,9.03
2019-04-03T01:51:39.765Z,9.67
2019-04-03T01:54:09.459Z,5.20
2019-04-03T01:56:39.188Z,7.57
2019-04-03T01:59:08.892Z,6.27
2019-04-03T02:01:39.137Z,7.70
2019-04-03T02:04:09.114Z,6.37
2019-04-03T02:06:38.802Z,7.70
2019-04-03T02:09:10.414Z,7.03
2019-04-03T02:11:40.177Z,6.23
2019-04-03T02:14:09.869Z,6.33
2019-04-03T02:16:39.589Z,6.33
2019-04-03T02:19:09.351Z,6.90
2019-04-03T02:21:40.095Z,5.97
2019-04-03T02:24:10.114Z,8.17
2019-04-03T02:26:39.949Z,4.33
2019-04-03T02:29:09.697Z,8.63
2019-04-03T02:31:39.706Z,5.83
2019-04-03T02:34:09.551Z,4.57
2019-04-03T02:36:43.313Z,7.87
2019-04-03T02:39:10.990Z,5.53
2019-04-03T02:41:40.738Z,6.23
2019-04-03T02:44:10.753Z,8.70
2019-04-03T02:46:40.515Z,8.83
2019-04-03T02:49:11.060Z,9.50
2019-04-03T02:51:43.699Z,7.83
2019-04-03T02:54:29.840Z,8.53
2019-04-03T02:56:59.803Z,9.97
2019-04-03T02:59:29.752Z,9.20
2019-04-03T03:01:59.536Z,8.70
2019-04-03T03:04:29.410Z,6.73
2019-04-03T03:06:59.137Z,8.00
2019-04-03T03:09:30.761Z,9.93
2019-04-03T03:12:01.990Z,9.60
2019-04-03T03:14:31.941Z,9.87
2019-04-03T03:17:02.221Z,7.23
2019-04-03T03:19:33.374Z,7.43
2019-04-03T03:22:04.017Z,10.23
2019-04-03T03:24:38.721Z,7.60
2019-04-03T03:27:10.273Z,8.10
2019-04-03T03:29:40.975Z,9.07
2019-04-03T03:32:18.708Z,9.10
2019-04-03T03:34:54.046Z,6.50
2019-04-03T03:37:15.621Z,9.07
2019-04-03T03:39:45.873Z,9.20
2019-04-03T03:42:16.406Z,5.47
2019-04-03T03:44:46.992Z,5.77
2019-04-03T03:47:18.354Z,8.80
2019-04-03T03:49:50.896Z,7.90
2019-04-03T03:52:22.199Z,5.77
2019-04-03T03:54:52.554Z,7.97
2019-04-03T03:57:22.854Z,7.60
2019-04-03T03:59:52.890Z,7.37
2019-04-03T04:02:23.794Z,7.50
2019-04-03T04:04:53.650Z,6.90
2019-04-03T04:07:23.831Z,9.13
2019-04-03T04:09:54.111Z,6.33
2019-04-03T04:12:24.672Z,6.73
2019-04-03T04:14:56.879Z,5.90
2019-04-03T04:17:27.031Z,6.53
2019-04-03T04:19:57.769Z,6.83
2019-04-03T04:22:28.252Z,6.07
2019-04-03T04:25:00.837Z,5.87
2019-04-03T04:27:33.470Z,5.37
2019-04-03T04:30:02.445Z,6.63
2019-04-03T04:32:32.275Z,6.40
2019-04-03T04:35:01.999Z,6.60
2019-04-03T04:37:31.713Z,6.83
2019-04-03T04:40:01.510Z,6.77
2019-04-03T04:42:31.453Z,8.50
2019-04-03T04:45:02.673Z,7.03
2019-04-03T04:47:32.370Z,9.27
2019-04-03T04:50:02.201Z,8.77
2019-04-03T04:52:31.927Z,7.60
2019-04-03T04:55:02.789Z,8.50
2019-04-03T04:57:32.568Z,7.30
2019-04-03T05:00:02.379Z,6.23
2019-04-03T05:02:32.262Z,8.20
2019-04-03T05:05:01.934Z,8.87
2019-04-03T05:07:31.613Z,9.00
2019-04-03T05:10:01.319Z,7.53
2019-04-03T05:12:31.146Z,8.20
2019-04-03T05:15:00.997Z,8.03
2019-04-03T05:17:30.766Z,8.27
2019-04-03T05:20:00.496Z,8.30
2019-04-03T05:22:31.162Z,9.20
2019-04-03T05:25:00.892Z,7.77
2019-04-03T05:27:33.334Z,8.17
2019-04-03T05:30:02.136Z,6.63
2019-04-03T05:32:31.974Z,7.50
2019-04-03T05:35:01.696Z,8.07
2019-04-03T05:37:31.662Z,8.30
2019-04-03T05:40:01.385Z,7.57
2019-04-03T05:42:31.086Z,10.53
2019-04-03T05:45:03.629Z,8.80
2019-04-03T05:47:32.200Z,7.83
2019-04-03T05:50:02.299Z,9.43
2019-04-03T05:52:33.152Z,9.60
2019-04-03T05:55:03.811Z,9.70
2019-04-03T05:57:33.633Z,9.10
2019-04-03T06:00:06.138Z,9.23
2019-04-03T06:02:35.176Z,10.00
2019-04-03T06:05:06.708Z,9.97
2019-04-03T06:07:36.886Z,10.53
2019-04-03T06:10:07.733Z,9.47
2019-04-03T06:12:37.848Z,7.47
2019-04-03T06:15:10.257Z,10.67
2019-04-03T06:17:40.298Z,9.17
2019-04-03T06:20:11.590Z,7.77
2019-04-03T06:22:41.329Z,11.73
2019-04-03T06:25:13.986Z,9.80
2019-04-03T06:27:45.756Z,9.27
2019-04-03T06:30:15.609Z,9.77
2019-04-03T06:32:45.462Z,9.93
2019-04-03T06:35:16.238Z,9.37
2019-04-03T06:37:45.977Z,10.90
2019-04-03T06:40:15.961Z,9.17
2019-04-03T06:42:45.759Z,10.00
2019-04-03T06:45:16.157Z,10.37
2019-04-03T06:47:46.960Z,10.27
2019-04-03T06:50:17.555Z,9.40
2019-04-03T06:52:47.755Z,9.47
2019-04-03T06:55:17.421Z,11.60
2019-04-03T06:57:47.391Z,12.17
2019-04-03T07:00:17.316Z,9.83
2019-04-03T07:02:47.026Z,11.23
2019-04-03T07:05:16.724Z,10.03
2019-04-03T07:07:46.439Z,10.70
2019-04-03T07:10:25.046Z,10.63
2019-04-03T07:12:48.122Z,11.27
2019-04-03T07:15:18.436Z,9.87
2019-04-03T07:17:48.203Z,9.17
2019-04-03T07:20:20.114Z,9.60
2019-04-03T07:22:49.580Z,10.67
2019-04-03T07:25:19.451Z,12.17
2019-04-03T07:27:49.157Z,11.10
2019-04-03T07:30:19.973Z,11.73
2019-04-03T07:32:50.554Z,9.83
2019-04-03T07:35:20.236Z,10.17
2019-04-03T07:37:50.988Z,10.90
2019-04-03T07:40:22.304Z,11.50
2019-04-03T07:42:52.266Z,11.57
2019-04-03T07:45:22.082Z,11.30
2019-04-03T07:47:51.798Z,10.87
2019-04-03T07:50:21.583Z,10.03
2019-04-03T07:52:51.283Z,11.20
2019-04-03T07:55:23.543Z,11.00
2019-04-03T07:57:52.385Z,11.17
2019-04-03T08:00:22.672Z,10.23
2019-04-03T08:02:52.663Z,9.30
2019-04-03T08:05:22.359Z,9.37
2019-04-03T08:07:52.053Z,11.33
2019-04-03T08:10:21.859Z,12.10
2019-04-03T08:12:51.888Z,10.50
2019-04-03T08:15:21.589Z,11.33
2019-04-03T08:17:51.521Z,10.03
2019-04-03T08:20:21.574Z,12.83
2019-04-03T08:22:51.276Z,11.87
2019-04-03T08:25:20.985Z,10.43
2019-04-03T08:27:50.756Z,10.77
2019-04-03T08:30:21.284Z,11.17
2019-04-03T08:32:51.080Z,13.17
2019-04-03T08:35:23.643Z,11.37
2019-04-03T08:37:52.304Z,12.77
2019-04-03T08:40:22.039Z,11.60
2019-04-03T08:42:52.226Z,12.43
2019-04-03T08:45:22.275Z,10.77
2019-04-03T08:47:51.916Z,11.73
2019-04-03T08:50:21.783Z,12.87
2019-04-03T08:52:51.485Z,11.87
2019-04-03T08:55:21.227Z,11.60
2019-04-03T08:57:52.469Z,12.43
2019-04-03T09:00:22.674Z,11.50
2019-04-03T09:02:52.496Z,11.80
2019-04-03T09:05:22.376Z,11.33
2019-04-03T09:07:55.261Z,10.17
2019-04-03T09:10:23.748Z,12.87
2019-04-03T09:12:53.592Z,11.43
2019-04-03T09:15:23.467Z,11.73
2019-04-03T09:17:53.416Z,12.40
2019-04-03T09:20:23.241Z,11.90
2019-04-03T09:22:54.015Z,10.60
2019-04-03T09:25:24.277Z,10.50
2019-04-03T09:27:53.954Z,11.37
2019-04-03T09:30:24.412Z,12.33
2019-04-03T09:32:54.450Z,11.97
2019-04-03T09:35:24.360Z,12.47
2019-04-03T09:37:54.315Z,12.60
2019-04-03T09:40:24.608Z,12.10
2019-04-03T09:42:54.436Z,11.87
2019-04-03T09:45:24.150Z,11.23
2019-04-03T09:47:53.832Z,11.83
2019-04-03T09:50:23.788Z,11.50
2019-04-03T09:52:54.883Z,11.57
2019-04-03T09:55:25.079Z,11.20
2019-04-03T09:57:54.782Z,12.50
2019-04-03T10:00:26.599Z,12.80
2019-04-03T10:02:56.396Z,11.60
2019-04-03T10:05:28.349Z,12.43
2019-04-03T10:07:57.527Z,11.43
2019-04-03T10:10:27.449Z,11.17
2019-04-03T10:12:57.208Z,10.87
2019-04-03T10:15:27.274Z,10.90
2019-04-03T10:17:57.131Z,10.43
2019-04-03T10:20:27.140Z,11.43
2019-04-03T10:22:57.047Z,10.93
2019-04-03T10:25:26.966Z,11.53
2019-04-03T10:27:56.864Z,10.67
2019-04-03T10:30:27.101Z,11.57
2019-04-03T10:32:59.546Z,11.33
2019-04-03T10:35:28.614Z,10.93
2019-04-03T10:37:58.301Z,11.73
2019-04-03T10:40:28.002Z,10.50
2019-04-03T10:43:00.082Z,11.07
2019-04-03T10:45:29.510Z,11.00
2019-04-03T10:47:59.256Z,10.83
2019-04-03T10:50:28.985Z,10.13
2019-04-03T10:52:59.250Z,11.60
2019-04-03T10:55:29.594Z,11.83
2019-04-03T10:58:01.583Z,10.87
2019-04-03T11:00:30.926Z,10.50
2019-04-03T11:03:00.845Z,9.50
2019-04-03T11:05:30.683Z,10.17
2019-04-03T11:08:00.455Z,10.00
2019-04-03T11:10:30.163Z,8.83
2019-04-03T11:13:00.904Z,25.37
2019-04-03T11:15:31.422Z,11.00
2019-04-03T11:18:01.096Z,20.57
2019-04-03T11:20:30.809Z,16.17
2019-04-03T11:23:06.364Z,13.90
2019-04-03T11:25:31.997Z,12.13
2019-04-03T11:28:05.126Z,9.40
2019-04-03T11:30:33.178Z,8.60
2019-04-03T11:33:02.961Z,8.87
2019-04-03T11:35:32.786Z,10.27
2019-04-03T11:38:13.088Z,10.27
2019-04-03T11:40:34.013Z,9.47
2019-04-03T11:43:03.699Z,8.47
2019-04-03T11:45:33.729Z,8.33
2019-04-03T11:48:03.741Z,8.73
2019-04-03T11:50:33.552Z,8.37
2019-04-03T11:53:07.144Z,8.53
2019-04-03T11:55:34.739Z,7.93
2019-04-03T11:58:04.791Z,9.43
2019-04-03T12:00:39.250Z,9.67
2019-04-03T12:03:10.713Z,8.77
2019-04-03T12:05:40.458Z,8.17
2019-04-03T12:08:12.427Z,8.17
2019-04-03T12:10:41.766Z,8.33
2019-04-03T12:13:13.560Z,8.37
2019-04-03T12:15:42.874Z,9.27
2019-04-03T12:18:12.871Z,8.27
2019-04-03T12:20:44.887Z,7.90
2019-04-03T12:23:14.042Z,7.47
2019-04-03T12:25:43.742Z,8.27
2019-04-03T12:28:13.407Z,8.57
2019-04-03T12:30:43.704Z,9.03
2019-04-03T12:33:13.671Z,8.50
2019-04-03T12:35:43.403Z,9.03
2019-04-03T12:38:13.540Z,7.97
2019-04-03T12:40:44.562Z,8.60
2019-04-03T12:43:14.403Z,7.63
2019-04-03T12:45:45.343Z,8.37
2019-04-03T12:48:17.159Z,7.93
2019-04-03T12:50:46.870Z,8.10
2019-04-03T12:53:17.317Z,7.53
2019-04-03T12:55:47.117Z,6.80
2019-04-03T12:58:16.804Z,7.27
2019-04-03T13:00:46.780Z,7.80
2019-04-03T13:03:16.949Z,7.13
2019-04-03T13:05:48.605Z,8.53
2019-04-03T13:08:20.266Z,7.40
2019-04-03T13:10:49.795Z,8.83
2019-04-03T13:13:19.454Z,8.93
2019-04-03T13:15:49.380Z,8.77
2019-04-03T13:18:20.087Z,8.73
2019-04-03T13:20:49.943Z,10.63
2019-04-03T13:23:20.199Z,9.37
2019-04-03T13:25:51.007Z,9.07
2019-04-03T13:28:21.632Z,8.73
2019-04-03T13:30:51.346Z,7.73
2019-04-03T13:33:21.153Z,8.70
2019-04-03T13:35:50.975Z,8.73
2019-04-03T13:38:20.819Z,9.23
2019-04-03T13:40:50.986Z,8.33
2019-04-03T13:43:21.924Z,8.03
2019-04-03T13:45:52.265Z,7.67
2019-04-03T13:48:22.003Z,7.90
2019-04-03T13:50:54.181Z,8.87
2019-04-03T13:53:25.391Z,8.20
2019-04-03T13:55:54.653Z,7.33
2019-04-03T13:58:27.024Z,7.33
2019-04-03T14:01:00.790Z,6.87
2019-04-03T14:03:27.946Z,7.83
2019-04-03T14:05:58.141Z,8.20
2019-04-03T14:08:28.041Z,9.20
2019-04-03T14:10:58.851Z,8.77
2019-04-03T14:13:28.873Z,13.73
2019-04-03T14:15:58.578Z,9.30
2019-04-03T14:18:28.461Z,9.27
2019-04-03T14:20:58.225Z,9.77
2019-04-03T14:23:27.904Z,7.87
2019-04-03T14:26:05.584Z,8.00
2019-04-03T14:28:28.997Z,7.73
2019-04-03T14:30:58.704Z,7.53
2019-04-03T14:33:41.271Z,7.93
2019-04-03T14:36:00.146Z,8.13
2019-04-03T14:38:32.385Z,8.63
2019-04-03T14:41:03.082Z,8.40
2019-04-03T14:43:34.436Z,8.90
2019-04-03T14:46:04.960Z,9.40
2019-04-03T14:48:34.813Z,8.73
2019-04-03T14:51:06.404Z,7.73
2019-04-03T14:53:36.214Z,6.63
2019-04-03T14:56:06.213Z,8.37
2019-04-03T14:58:37.117Z,7.33
2019-04-03T15:01:06.942Z,7.40
2019-04-03T15:03:37.115Z,5.93
2019-04-03T15:06:06.978Z,6.43
2019-04-03T15:08:37.018Z,6.23
2019-04-03T15:11:06.834Z,6.60
2019-04-03T15:13:36.729Z,6.60
2019-04-03T15:16:06.861Z,6.63
2019-04-03T15:18:37.160Z,5.63
2019-04-03T15:21:07.224Z,5.57
2019-04-03T15:23:40.432Z,5.67
2019-04-03T15:26:08.321Z,6.03
2019-04-03T15:28:38.361Z,5.43
2019-04-03T15:31:08.160Z,5.67
2019-04-03T15:33:37.877Z,5.93
2019-04-03T15:36:07.954Z,5.93
2019-04-03T15:38:37.647Z,6.17
2019-04-03T15:41:07.320Z,6.03
2019-04-03T15:43:37.194Z,6.33
2019-04-03T15:46:06.893Z,5.90
2019-04-03T15:48:38.531Z,7.60
2019-04-03T15:51:08.720Z,6.87
2019-04-03T15:53:38.416Z,5.77
2019-04-03T15:56:11.827Z,6.40
2019-04-03T15:58:39.735Z,7.10
2019-04-03T16:01:09.515Z,6.30
2019-04-03T16:03:39.214Z,6.47
2019-04-03T16:06:08.976Z,6.97
2019-04-03T16:08:39.078Z,7.00
2019-04-03T16:11:09.151Z,7.17
2019-04-03T16:13:38.924Z,7.10
2019-04-03T16:16:08.708Z,9.00
2019-04-03T16:18:39.023Z,8.67
2019-04-03T16:21:08.857Z,8.93
2019-04-03T16:23:38.775Z,9.93
2019-04-03T16:26:08.863Z,8.57
2019-04-03T16:28:38.736Z,9.13
2019-04-03T16:31:08.489Z,8.73
2019-04-03T16:33:38.196Z,7.97
2019-04-03T16:42:21.363Z,8.80
2019-04-03T16:44:53.201Z,8.20
2019-04-03T16:47:25.463Z,8.03
2019-04-03T16:49:55.989Z,8.87
2019-04-03T16:52:26.057Z,9.37
2019-04-03T16:54:55.997Z,8.67
2019-04-03T16:57:26.476Z,8.93
2019-04-03T16:59:56.573Z,10.43
2019-04-03T17:02:29.143Z,9.20
2019-04-03T17:04:58.469Z,9.10
2019-04-03T17:07:28.536Z,11.77
2019-04-03T17:09:58.279Z,10.50
2019-04-03T17:12:28.161Z,9.10
2019-04-03T17:14:58.121Z,10.00
2019-04-03T17:17:27.993Z,9.43
2019-04-03T17:19:57.970Z,9.10
2019-04-03T17:22:28.188Z,10.70
2019-04-03T17:24:58.049Z,9.83
2019-04-03T17:27:30.171Z,10.93
2019-04-03T17:29:59.619Z,9.97
2019-04-03T17:32:30.835Z,10.00
2019-04-03T17:35:01.432Z,9.77
2019-04-03T17:37:31.151Z,9.47
2019-04-03T17:40:01.038Z,10.33
2019-04-03T17:42:31.446Z,9.30
2019-04-03T17:45:35.262Z,10.10
2019-04-03T17:48:05.747Z,8.93
2019-04-03T17:50:35.487Z,8.23
2019-04-03T17:53:06.640Z,8.70
2019-04-03T17:55:37.777Z,9.70
2019-04-03T17:58:07.566Z,10.07
2019-04-03T18:00:37.453Z,10.07
2019-04-03T18:03:07.188Z,9.57
2019-04-03T18:05:37.043Z,12.23
2019-04-03T18:08:07.269Z,11.10
2019-04-03T18:10:37.483Z,13.13
2019-04-03T18:13:07.443Z,11.17
2019-04-03T18:15:37.193Z,9.77
2019-04-03T18:18:07.072Z,11.43
2019-04-03T18:20:37.408Z,9.67
2019-04-03T18:23:07.351Z,12.43
2019-04-03T18:25:37.086Z,8.83
2019-04-03T18:28:06.951Z,8.47
2019-04-03T18:30:36.816Z,8.70
2019-04-03T18:33:06.686Z,9.67
2019-04-03T18:35:36.599Z,7.57
2019-04-03T18:38:08.044Z,7.03
2019-04-03T18:40:41.967Z,8.63
2019-04-03T18:43:11.975Z,8.03
2019-04-03T18:45:41.861Z,8.90
2019-04-03T18:48:12.707Z,9.73
2019-04-03T18:50:42.671Z,8.07
2019-04-03T18:53:12.576Z,9.53
2019-04-03T18:55:44.629Z,10.30
2019-04-03T18:58:14.139Z,9.83
2019-04-03T19:00:44.074Z,10.17
2019-04-03T19:03:14.042Z,9.43
2019-04-03T19:05:43.978Z,8.87
2019-04-03T19:08:17.793Z,6.97
2019-04-03T19:10:47.272Z,7.90
2019-04-03T19:13:17.387Z,7.90
2019-04-03T19:15:47.405Z,8.33
2019-04-03T19:18:19.850Z,6.67
2019-04-03T19:20:48.915Z,7.43
2019-04-03T19:23:18.729Z,9.93
2019-04-03T19:25:48.831Z,8.90
2019-04-03T19:28:18.827Z,9.37
2019-04-03T19:30:49.616Z,8.03
2019-04-03T19:33:19.687Z,9.30
2019-04-03T19:35:49.820Z,9.70
2019-04-03T19:38:19.930Z,8.83
2019-04-03T19:40:49.888Z,9.40
2019-04-03T19:43:19.942Z,8.50
2019-04-03T19:45:51.672Z,9.00
2019-04-03T19:48:21.645Z,9.00
2019-04-03T19:50:51.410Z,9.33
2019-04-03T19:53:21.370Z,8.60
2019-04-03T19:55:54.479Z,12.20
2019-04-03T19:58:23.367Z,9.53
2019-04-03T20:00:53.247Z,9.80
2019-04-03T20:03:23.236Z,8.47
2019-04-03T20:05:55.076Z,9.53
2019-04-03T20:08:24.974Z,8.00
2019-04-03T20:10:54.963Z,8.97
2019-04-03T20:13:27.859Z,8.77
2019-04-03T20:15:56.582Z,9.30
2019-04-03T20:18:26.641Z,9.57
2019-04-03T20:20:56.567Z,9.67
2019-04-03T20:23:26.376Z,9.43
2019-04-03T20:25:56.179Z,9.50
2019-04-03T20:28:26.247Z,9.93
2019-04-03T20:30:56.158Z,9.13
2019-04-03T20:33:26.182Z,8.80
2019-04-03T20:35:56.149Z,8.40
2019-04-03T20:38:27.512Z,8.93
2019-04-03T20:40:57.732Z,10.33
2019-04-03T20:43:27.488Z,9.87
2019-04-03T20:45:57.357Z,7.63
2019-04-03T20:48:28.301Z,9.23
2019-04-03T20:50:58.671Z,8.87
2019-04-03T20:53:28.537Z,10.73
2019-04-03T20:55:58.741Z,9.63
2019-04-03T20:58:28.535Z,9.30
2019-04-03T21:01:06.861Z,11.20
2019-04-03T21:03:30.048Z,11.93
2019-04-03T21:05:59.932Z,11.20
2019-04-03T21:08:31.552Z,11.60
2019-04-03T21:11:02.378Z,12.47
2019-04-03T21:13:32.681Z,11.17
2019-04-03T21:16:02.769Z,11.57
2019-04-03T21:18:32.608Z,11.37
2019-04-03T21:21:02.588Z,11.20
2019-04-03T21:23:33.507Z,10.20
2019-04-03T21:26:06.613Z,11.23
2019-04-03T21:28:35.517Z,9.97
2019-04-03T21:31:11.445Z,11.77
2019-04-03T21:33:41.318Z,10.00
2019-04-03T21:36:11.106Z,12.03
2019-04-03T21:38:41.727Z,9.70
2019-04-03T21:41:12.076Z,11.23
2019-04-03T21:43:41.854Z,10.77
2019-04-03T21:46:12.097Z,10.60
2019-04-03T21:48:44.475Z,11.10
2019-04-03T21:51:13.364Z,10.63
2019-04-03T21:53:43.057Z,11.60
2019-04-03T21:56:13.872Z,10.53
2019-04-03T21:58:43.713Z,7.03
2019-04-03T22:01:25.927Z,11.07
2019-04-03T22:03:55.780Z,11.07
2019-04-03T22:06:27.813Z,11.53
2019-04-03T22:09:00.516Z,9.70
2019-04-03T22:11:29.680Z,12.27
2019-04-03T22:13:59.432Z,10.63
2019-04-03T22:16:29.226Z,4.93
2019-04-03T22:18:59.972Z,9.90
2019-04-03T22:21:32.202Z,11.70
2019-04-03T22:24:01.393Z,10.30
2019-04-03T22:26:31.649Z,10.20
2019-04-03T22:29:01.751Z,10.37
2019-04-03T22:31:32.167Z,11.13
2019-04-03T22:34:02.169Z,11.37
2019-04-03T22:36:33.695Z,9.67
2019-04-03T22:39:04.144Z,11.33
2019-04-03T22:41:35.609Z,10.63
2019-04-03T22:44:06.025Z,11.03
2019-04-03T22:46:36.018Z,10.90
2019-04-03T22:49:07.215Z,10.60
2019-04-03T22:51:37.703Z,11.17
2019-04-03T22:54:10.877Z,11.17
2019-04-03T22:56:41.209Z,10.57
2019-04-03T22:59:11.042Z,12.80
2019-04-03T23:01:40.785Z,11.47
2019-04-03T23:04:14.099Z,10.93
2019-04-03T23:06:44.478Z,11.87
2019-04-03T23:09:14.368Z,10.73
2019-04-03T23:11:45.368Z,7.40
2019-04-03T23:14:15.086Z,9.93
2019-04-03T23:16:44.898Z,9.47
2019-04-03T23:19:17.629Z,12.20
2019-04-03T23:21:46.033Z,10.47
2019-04-03T23:24:15.775Z,11.90
2019-04-03T23:26:45.523Z,13.00
2019-04-03T23:29:15.156Z,11.23
2019-04-03T23:31:45.471Z,12.00
2019-04-03T23:34:18.839Z,13.07
2019-04-03T23:36:46.850Z,11.23
2019-04-03T23:39:16.614Z,10.07
2019-04-03T23:41:46.334Z,9.10
2019-04-03T23:44:15.992Z,10.13
2019-04-03T23:46:46.078Z,8.93
2019-04-03T23:49:15.892Z,8.97
2019-04-03T23:51:45.647Z,11.40
2019-04-03T23:54:15.533Z,10.60
2019-04-03T23:56:45.397Z,8.40
2019-04-03T23:59:15.120Z,11.60
